sensor_id;sensor_type;location;lat;lon;timestamp;P1;durP1;ratioP1;P2;durP2;ratioP2
13704;SDS011;6924;52.122;9.952;2023-11-21T00:02:12;9.40;;;6.60;;
13704;SDS011;6924;52.122;9.952;2023-11-21T00:04:38;11.90;;;6.53;;
13704;SDS011;6924;52.122;9.952;2023-11-21T00:07:06;9.47;;;6.30;;
13704;SDS011;6924;52.122;9.952;2023-11-21T00:09:32;11.83;;;6.50;;
13704;SDS011;6924;52.122;9.952;2023-11-21T00:12:00;11.37;;;6.90;;
13704;SDS011;6924;52.122;9.952;2023-11-21T00:14:26;12.90;;;7.50;;
13704;SDS011;6924;52.122;9.952;2023-11-21T00:16:53;13.53;;;7.90;;
13704;SDS011;6924;52.122;9.952;2023-11-21T00:19:19;17.30;;;8.70;;
13704;SDS011;6924;52.122;9.952;2023-11-21T00:21:46;10.60;;;7.10;;
13704;SDS011;6924;52.122;9.952;2023-11-21T00:24:14;13.03;;;7.07;;
13704;SDS011;6924;52.122;9.952;2023-11-21T00:26:40;12.07;;;7.83;;
13704;SDS011;6924;52.122;9.952;2023-11-21T00:29:07;11.60;;;7.50;;
13704;SDS011;6924;52.122;9.952;2023-11-21T00:31:33;12.00;;;7.07;;
13704;SDS011;6924;52.122;9.952;2023-11-21T00:34:01;11.13;;;8.00;;
13704;SDS011;6924;52.122;9.952;2023-11-21T00:36:28;15.10;;;7.27;;
13704;SDS011;6924;52.122;9.952;2023-11-21T00:38:55;9.43;;;6.47;;
13704;SDS011;6924;52.122;9.952;2023-11-21T00:41:23;11.90;;;6.63;;
13704;SDS011;6924;52.122;9.952;2023-11-21T00:43:49;11.13;;;7.87;;
13704;SDS011;6924;52.122;9.952;2023-11-21T00:46:15;8.17;;;7.37;;
13704;SDS011;6924;52.122;9.952;2023-11-21T00:48:42;13.47;;;7.73;;
13704;SDS011;6924;52.122;9.952;2023-11-21T00:51:08;8.57;;;6.50;;
13704;SDS011;6924;52.122;9.952;2023-11-21T00:53:35;12.83;;;7.60;;
13704;SDS011;6924;52.122;9.952;2023-11-21T00:56:01;9.20;;;6.17;;
13704;SDS011;6924;52.122;9.952;2023-11-21T00:58:29;12.27;;;6.57;;
13704;SDS011;6924;52.122;9.952;2023-11-21T01:00:56;12.40;;;6.80;;
13704;SDS011;6924;52.122;9.952;2023-11-21T01:03:22;9.60;;;6.47;;
13704;SDS011;6924;52.122;9.952;2023-11-21T01:05:49;17.07;;;7.27;;
13704;SDS011;6924;52.122;9.952;2023-11-21T01:08:16;14.00;;;6.83;;
13704;SDS011;6924;52.122;9.952;2023-11-21T01:10:42;10.10;;;6.73;;
13704;SDS011;6924;52.122;9.952;2023-11-21T01:13:09;12.07;;;7.20;;
13704;SDS011;6924;52.122;9.952;2023-11-21T01:15:37;13.87;;;6.93;;
13704;SDS011;6924;52.122;9.952;2023-11-21T01:18:03;13.77;;;6.63;;
13704;SDS011;6924;52.122;9.952;2023-11-21T01:20:30;13.10;;;6.43;;
13704;SDS011;6924;52.122;9.952;2023-11-21T01:22:57;11.43;;;6.90;;
13704;SDS011;6924;52.122;9.952;2023-11-21T01:25:24;13.20;;;7.00;;
13704;SDS011;6924;52.122;9.952;2023-11-21T01:27:51;10.33;;;6.77;;
13704;SDS011;6924;52.122;9.952;2023-11-21T01:30:17;9.53;;;7.47;;
13704;SDS011;6924;52.122;9.952;2023-11-21T01:32:45;13.90;;;8.00;;
13704;SDS011;6924;52.122;9.952;2023-11-21T01:35:11;10.50;;;7.63;;
13704;SDS011;6924;52.122;9.952;2023-11-21T01:37:38;13.17;;;7.90;;
13704;SDS011;6924;52.122;9.952;2023-11-21T01:40:05;11.37;;;7.60;;
13704;SDS011;6924;52.122;9.952;2023-11-21T01:42:35;11.67;;;6.87;;
13704;SDS011;6924;52.122;9.952;2023-11-21T01:45:02;9.23;;;7.43;;
13704;SDS011;6924;52.122;9.952;2023-11-21T01:47:30;16.33;;;8.07;;
13704;SDS011;6924;52.122;9.952;2023-11-21T01:49:58;11.60;;;8.03;;
13704;SDS011;6924;52.122;9.952;2023-11-21T01:52:25;9.20;;;8.07;;
13704;SDS011;6924;52.122;9.952;2023-11-21T01:54:52;12.90;;;7.57;;
13704;SDS011;6924;52.122;9.952;2023-11-21T01:57:19;17.57;;;9.07;;
13704;SDS011;6924;52.122;9.952;2023-11-21T01:59:46;10.67;;;7.03;;
13704;SDS011;6924;52.122;9.952;2023-11-21T02:02:14;13.77;;;8.47;;
13704;SDS011;6924;52.122;9.952;2023-11-21T02:04:41;14.73;;;8.73;;
13704;SDS011;6924;52.122;9.952;2023-11-21T02:07:10;13.53;;;7.77;;
13704;SDS011;6924;52.122;9.952;2023-11-21T02:09:36;16.30;;;8.53;;
13704;SDS011;6924;52.122;9.952;2023-11-21T02:12:04;15.87;;;9.13;;
13704;SDS011;6924;52.122;9.952;2023-11-21T02:14:31;11.17;;;8.73;;
13704;SDS011;6924;52.122;9.952;2023-11-21T02:16:58;12.40;;;8.43;;
13704;SDS011;6924;52.122;9.952;2023-11-21T02:19:26;15.93;;;8.10;;
13704;SDS011;6924;52.122;9.952;2023-11-21T02:21:54;13.93;;;9.00;;
13704;SDS011;6924;52.122;9.952;2023-11-21T02:24:26;12.07;;;7.67;;
13704;SDS011;6924;52.122;9.952;2023-11-21T02:26:52;10.70;;;7.90;;
13704;SDS011;6924;52.122;9.952;2023-11-21T02:29:19;14.63;;;9.53;;
13704;SDS011;6924;52.122;9.952;2023-11-21T02:31:47;13.53;;;8.80;;
13704;SDS011;6924;52.122;9.952;2023-11-21T02:34:14;12.23;;;8.27;;
13704;SDS011;6924;52.122;9.952;2023-11-21T02:36:40;13.03;;;7.93;;
13704;SDS011;6924;52.122;9.952;2023-11-21T02:39:08;11.87;;;8.27;;
13704;SDS011;6924;52.122;9.952;2023-11-21T02:41:36;10.10;;;8.67;;
13704;SDS011;6924;52.122;9.952;2023-11-21T02:44:04;16.77;;;8.23;;
13704;SDS011;6924;52.122;9.952;2023-11-21T02:46:31;10.83;;;8.97;;
13704;SDS011;6924;52.122;9.952;2023-11-21T02:48:58;16.57;;;7.97;;
13704;SDS011;6924;52.122;9.952;2023-11-21T02:51:25;16.03;;;9.63;;
13704;SDS011;6924;52.122;9.952;2023-11-21T02:53:52;14.60;;;9.47;;
13704;SDS011;6924;52.122;9.952;2023-11-21T02:56:18;15.90;;;9.63;;
13704;SDS011;6924;52.122;9.952;2023-11-21T02:58:46;14.40;;;9.33;;
13704;SDS011;6924;52.122;9.952;2023-11-21T03:01:12;15.90;;;10.07;;
13704;SDS011;6924;52.122;9.952;2023-11-21T03:03:39;14.70;;;9.27;;
13704;SDS011;6924;52.122;9.952;2023-11-21T03:06:07;21.17;;;9.00;;
13704;SDS011;6924;52.122;9.952;2023-11-21T03:08:33;14.50;;;10.13;;
13704;SDS011;6924;52.122;9.952;2023-11-21T03:11:00;17.07;;;8.80;;
13704;SDS011;6924;52.122;9.952;2023-11-21T03:13:28;15.20;;;10.00;;
13704;SDS011;6924;52.122;9.952;2023-11-21T03:15:55;16.53;;;10.23;;
13704;SDS011;6924;52.122;9.952;2023-11-21T03:18:22;16.13;;;10.10;;
13704;SDS011;6924;52.122;9.952;2023-11-21T03:20:48;20.97;;;10.33;;
13704;SDS011;6924;52.122;9.952;2023-11-21T03:23:15;19.87;;;10.43;;
13704;SDS011;6924;52.122;9.952;2023-11-21T03:25:41;17.63;;;9.07;;
13704;SDS011;6924;52.122;9.952;2023-11-21T03:28:08;19.93;;;8.90;;
13704;SDS011;6924;52.122;9.952;2023-11-21T03:30:35;20.60;;;8.70;;
13704;SDS011;6924;52.122;9.952;2023-11-21T03:33:02;20.17;;;10.97;;
13704;SDS011;6924;52.122;9.952;2023-11-21T03:35:29;14.27;;;10.17;;
13704;SDS011;6924;52.122;9.952;2023-11-21T03:37:55;20.43;;;11.47;;
13704;SDS011;6924;52.122;9.952;2023-11-21T03:40:22;18.03;;;10.83;;
13704;SDS011;6924;52.122;9.952;2023-11-21T03:42:48;16.20;;;10.93;;
13704;SDS011;6924;52.122;9.952;2023-11-21T03:45:15;19.57;;;9.90;;
13704;SDS011;6924;52.122;9.952;2023-11-21T03:47:42;18.47;;;10.27;;
13704;SDS011;6924;52.122;9.952;2023-11-21T03:50:10;21.93;;;10.53;;
13704;SDS011;6924;52.122;9.952;2023-11-21T03:52:36;15.60;;;10.07;;
13704;SDS011;6924;52.122;9.952;2023-11-21T03:55:03;17.57;;;10.03;;
13704;SDS011;6924;52.122;9.952;2023-11-21T03:57:30;21.70;;;9.60;;
13704;SDS011;6924;52.122;9.952;2023-11-21T03:59:57;15.10;;;10.00;;
13704;SDS011;6924;52.122;9.952;2023-11-21T04:02:23;16.27;;;10.30;;
13704;SDS011;6924;52.122;9.952;2023-11-21T04:04:51;15.07;;;9.50;;
13704;SDS011;6924;52.122;9.952;2023-11-21T04:07:19;18.77;;;10.07;;
13704;SDS011;6924;52.122;9.952;2023-11-21T04:09:47;16.83;;;9.70;;
13704;SDS011;6924;52.122;9.952;2023-11-21T04:12:13;18.97;;;10.83;;
13704;SDS011;6924;52.122;9.952;2023-11-21T04:14:39;15.80;;;9.40;;
13704;SDS011;6924;52.122;9.952;2023-11-21T04:17:06;20.63;;;11.17;;
13704;SDS011;6924;52.122;9.952;2023-11-21T04:19:32;13.23;;;9.87;;
13704;SDS011;6924;52.122;9.952;2023-11-21T04:21:59;21.33;;;11.13;;
13704;SDS011;6924;52.122;9.952;2023-11-21T04:24:27;18.33;;;10.50;;
13704;SDS011;6924;52.122;9.952;2023-11-21T04:26:53;16.00;;;10.27;;
13704;SDS011;6924;52.122;9.952;2023-11-21T04:29:20;19.40;;;10.27;;
13704;SDS011;6924;52.122;9.952;2023-11-21T04:31:46;16.27;;;10.30;;
13704;SDS011;6924;52.122;9.952;2023-11-21T04:34:14;18.17;;;11.13;;
13704;SDS011;6924;52.122;9.952;2023-11-21T04:36:40;17.73;;;9.70;;
13704;SDS011;6924;52.122;9.952;2023-11-21T04:39:07;19.43;;;11.13;;
13704;SDS011;6924;52.122;9.952;2023-11-21T04:41:35;12.67;;;10.50;;
13704;SDS011;6924;52.122;9.952;2023-11-21T04:44:04;24.60;;;10.90;;
13704;SDS011;6924;52.122;9.952;2023-11-21T04:46:31;19.07;;;12.30;;
13704;SDS011;6924;52.122;9.952;2023-11-21T04:48:57;14.37;;;10.73;;
13704;SDS011;6924;52.122;9.952;2023-11-21T04:51:24;25.30;;;11.03;;
13704;SDS011;6924;52.122;9.952;2023-11-21T04:53:51;17.07;;;11.30;;
13704;SDS011;6924;52.122;9.952;2023-11-21T04:56:17;22.53;;;11.37;;
13704;SDS011;6924;52.122;9.952;2023-11-21T04:58:45;17.87;;;10.73;;
13704;SDS011;6924;52.122;9.952;2023-11-21T05:01:11;21.23;;;11.10;;
13704;SDS011;6924;52.122;9.952;2023-11-21T05:03:38;25.63;;;11.87;;
13704;SDS011;6924;52.122;9.952;2023-11-21T05:06:05;20.90;;;11.53;;
13704;SDS011;6924;52.122;9.952;2023-11-21T05:08:32;21.03;;;10.53;;
13704;SDS011;6924;52.122;9.952;2023-11-21T05:10:59;16.90;;;11.47;;
13704;SDS011;6924;52.122;9.952;2023-11-21T05:13:25;24.77;;;11.70;;
13704;SDS011;6924;52.122;9.952;2023-11-21T05:15:53;16.93;;;10.40;;
13704;SDS011;6924;52.122;9.952;2023-11-21T05:18:20;17.97;;;11.37;;
13704;SDS011;6924;52.122;9.952;2023-11-21T05:20:47;24.03;;;10.73;;
13704;SDS011;6924;52.122;9.952;2023-11-21T05:23:13;20.60;;;11.27;;
13704;SDS011;6924;52.122;9.952;2023-11-21T05:25:40;14.77;;;10.57;;
13704;SDS011;6924;52.122;9.952;2023-11-21T05:28:07;23.83;;;12.03;;
13704;SDS011;6924;52.122;9.952;2023-11-21T05:30:33;20.27;;;11.33;;
13704;SDS011;6924;52.122;9.952;2023-11-21T05:33:01;20.60;;;11.33;;
13704;SDS011;6924;52.122;9.952;2023-11-21T05:35:28;15.77;;;10.47;;
13704;SDS011;6924;52.122;9.952;2023-11-21T05:37:54;25.33;;;12.03;;
13704;SDS011;6924;52.122;9.952;2023-11-21T05:40:21;15.00;;;11.40;;
13704;SDS011;6924;52.122;9.952;2023-11-21T05:42:48;21.93;;;11.43;;
13704;SDS011;6924;52.122;9.952;2023-11-21T05:45:16;13.33;;;10.03;;
13704;SDS011;6924;52.122;9.952;2023-11-21T05:47:44;16.43;;;11.60;;
13704;SDS011;6924;52.122;9.952;2023-11-21T05:50:13;18.60;;;11.50;;
13704;SDS011;6924;52.122;9.952;2023-11-21T05:52:41;25.70;;;12.33;;
13704;SDS011;6924;52.122;9.952;2023-11-21T05:55:08;24.00;;;12.00;;
13704;SDS011;6924;52.122;9.952;2023-11-21T05:57:35;18.03;;;11.67;;
13704;SDS011;6924;52.122;9.952;2023-11-21T06:00:03;21.73;;;12.17;;
13704;SDS011;6924;52.122;9.952;2023-11-21T06:02:36;16.90;;;11.27;;
13704;SDS011;6924;52.122;9.952;2023-11-21T06:05:04;21.03;;;11.43;;
13704;SDS011;6924;52.122;9.952;2023-11-21T06:07:32;25.13;;;11.10;;
13704;SDS011;6924;52.122;9.952;2023-11-21T06:09:58;23.90;;;11.60;;
13704;SDS011;6924;52.122;9.952;2023-11-21T06:12:24;20.30;;;11.87;;
13704;SDS011;6924;52.122;9.952;2023-11-21T06:14:51;20.83;;;12.30;;
13704;SDS011;6924;52.122;9.952;2023-11-21T06:17:17;30.77;;;12.47;;
13704;SDS011;6924;52.122;9.952;2023-11-21T06:19:43;18.13;;;10.97;;
13704;SDS011;6924;52.122;9.952;2023-11-21T06:22:11;19.13;;;10.97;;
13704;SDS011;6924;52.122;9.952;2023-11-21T06:24:38;18.70;;;10.77;;
13704;SDS011;6924;52.122;9.952;2023-11-21T06:27:07;14.27;;;10.30;;
13704;SDS011;6924;52.122;9.952;2023-11-21T06:29:34;17.90;;;10.43;;
13704;SDS011;6924;52.122;9.952;2023-11-21T06:32:00;15.37;;;9.87;;
13704;SDS011;6924;52.122;9.952;2023-11-21T06:34:27;15.73;;;10.57;;
13704;SDS011;6924;52.122;9.952;2023-11-21T06:36:55;13.57;;;9.17;;
13704;SDS011;6924;52.122;9.952;2023-11-21T06:39:21;21.47;;;12.00;;
13704;SDS011;6924;52.122;9.952;2023-11-21T06:41:49;14.00;;;10.03;;
13704;SDS011;6924;52.122;9.952;2023-11-21T06:44:25;13.93;;;9.30;;
13704;SDS011;6924;52.122;9.952;2023-11-21T06:46:52;23.53;;;10.37;;
13704;SDS011;6924;52.122;9.952;2023-11-21T06:49:18;18.17;;;13.00;;
13704;SDS011;6924;52.122;9.952;2023-11-21T06:51:45;25.73;;;13.93;;
13704;SDS011;6924;52.122;9.952;2023-11-21T06:54:23;33.20;;;14.20;;
13704;SDS011;6924;52.122;9.952;2023-11-21T06:56:53;30.37;;;15.07;;
13704;SDS011;6924;52.122;9.952;2023-11-21T06:59:21;20.07;;;11.40;;
13704;SDS011;6924;52.122;9.952;2023-11-21T07:01:53;12.13;;;9.40;;
13704;SDS011;6924;52.122;9.952;2023-11-21T07:04:36;16.10;;;10.73;;
13704;SDS011;6924;52.122;9.952;2023-11-21T07:07:11;14.80;;;9.47;;
13704;SDS011;6924;52.122;9.952;2023-11-21T07:09:41;12.63;;;8.97;;
13704;SDS011;6924;52.122;9.952;2023-11-21T07:12:19;12.03;;;9.87;;
13704;SDS011;6924;52.122;9.952;2023-11-21T07:17:34;20.07;;;10.00;;
13704;SDS011;6924;52.122;9.952;2023-11-21T07:20:02;12.53;;;8.93;;
13704;SDS011;6924;52.122;9.952;2023-11-21T07:22:46;10.67;;;9.17;;
13704;SDS011;6924;52.122;9.952;2023-11-21T07:25:46;15.57;;;9.13;;
13704;SDS011;6924;52.122;9.952;2023-11-21T07:28:40;12.90;;;8.27;;
13704;SDS011;6924;52.122;9.952;2023-11-21T07:31:07;14.57;;;8.43;;
13704;SDS011;6924;52.122;9.952;2023-11-21T07:33:48;13.63;;;9.70;;
13704;SDS011;6924;52.122;9.952;2023-11-21T07:36:28;13.23;;;8.63;;
13704;SDS011;6924;52.122;9.952;2023-11-21T07:38:59;9.43;;;8.10;;
13704;SDS011;6924;52.122;9.952;2023-11-21T07:41:37;14.43;;;9.03;;
13704;SDS011;6924;52.122;9.952;2023-11-21T07:44:28;15.27;;;9.57;;
13704;SDS011;6924;52.122;9.952;2023-11-21T07:46:57;12.40;;;8.83;;
13704;SDS011;6924;52.122;9.952;2023-11-21T07:49:26;12.23;;;8.80;;
13704;SDS011;6924;52.122;9.952;2023-11-21T07:52:02;14.03;;;7.27;;
13704;SDS011;6924;52.122;9.952;2023-11-21T07:54:48;7.10;;;5.00;;
13704;SDS011;6924;52.122;9.952;2023-11-21T07:57:24;6.70;;;5.43;;
13704;SDS011;6924;52.122;9.952;2023-11-21T08:00:26;3.90;;;2.10;;
13704;SDS011;6924;52.122;9.952;2023-11-21T08:02:55;3.17;;;2.37;;
13704;SDS011;6924;52.122;9.952;2023-11-21T08:05:24;2.37;;;2.03;;
13704;SDS011;6924;52.122;9.952;2023-11-21T08:07:53;3.10;;;2.40;;
13704;SDS011;6924;52.122;9.952;2023-11-21T08:10:50;3.57;;;3.03;;
13704;SDS011;6924;52.122;9.952;2023-11-21T08:13:32;3.50;;;2.93;;
13704;SDS011;6924;52.122;9.952;2023-11-21T08:16:03;3.57;;;3.03;;
13704;SDS011;6924;52.122;9.952;2023-11-21T08:18:51;3.77;;;3.20;;
13704;SDS011;6924;52.122;9.952;2023-11-21T08:21:37;3.43;;;2.80;;
13704;SDS011;6924;52.122;9.952;2023-11-21T08:24:05;3.50;;;3.20;;
13704;SDS011;6924;52.122;9.952;2023-11-21T08:29:37;4.77;;;3.33;;
13704;SDS011;6924;52.122;9.952;2023-11-21T08:32:05;7.77;;;3.07;;
13704;SDS011;6924;52.122;9.952;2023-11-21T08:34:32;4.93;;;3.87;;
13704;SDS011;6924;52.122;9.952;2023-11-21T08:36:58;3.97;;;3.57;;
13704;SDS011;6924;52.122;9.952;2023-11-21T08:39:25;4.53;;;4.03;;
13704;SDS011;6924;52.122;9.952;2023-11-21T08:42:02;5.27;;;3.57;;
13704;SDS011;6924;52.122;9.952;2023-11-21T08:44:40;5.67;;;4.50;;
13704;SDS011;6924;52.122;9.952;2023-11-21T08:47:14;5.13;;;3.27;;
13704;SDS011;6924;52.122;9.952;2023-11-21T08:49:55;4.43;;;3.13;;
13704;SDS011;6924;52.122;9.952;2023-11-21T08:52:23;4.63;;;3.37;;
13704;SDS011;6924;52.122;9.952;2023-11-21T08:55:18;3.57;;;3.03;;
13704;SDS011;6924;52.122;9.952;2023-11-21T08:57:54;5.23;;;3.93;;
13704;SDS011;6924;52.122;9.952;2023-11-21T09:00:35;5.40;;;4.07;;
13704;SDS011;6924;52.122;9.952;2023-11-21T09:03:12;5.07;;;4.27;;
13704;SDS011;6924;52.122;9.952;2023-11-21T09:05:47;5.53;;;4.77;;
13704;SDS011;6924;52.122;9.952;2023-11-21T09:11:23;7.13;;;4.77;;
13704;SDS011;6924;52.122;9.952;2023-11-21T09:16:41;6.10;;;4.57;;
13704;SDS011;6924;52.122;9.952;2023-11-21T09:19:29;5.97;;;4.83;;
13704;SDS011;6924;52.122;9.952;2023-11-21T09:22:16;7.77;;;5.90;;
13704;SDS011;6924;52.122;9.952;2023-11-21T09:25:02;7.13;;;5.27;;
13704;SDS011;6924;52.122;9.952;2023-11-21T09:27:38;8.67;;;5.80;;
13704;SDS011;6924;52.122;9.952;2023-11-21T09:30:11;6.73;;;5.90;;
13704;SDS011;6924;52.122;9.952;2023-11-21T09:32:40;9.00;;;5.70;;
13704;SDS011;6924;52.122;9.952;2023-11-21T09:35:18;6.53;;;5.70;;
13704;SDS011;6924;52.122;9.952;2023-11-21T09:37:46;9.47;;;6.23;;
13704;SDS011;6924;52.122;9.952;2023-11-21T09:43:09;14.23;;;7.10;;
13704;SDS011;6924;52.122;9.952;2023-11-21T09:45:44;9.93;;;7.23;;
13704;SDS011;6924;52.122;9.952;2023-11-21T09:48:18;10.23;;;7.50;;
13704;SDS011;6924;52.122;9.952;2023-11-21T09:51:08;12.03;;;7.57;;
13704;SDS011;6924;52.122;9.952;2023-11-21T09:53:38;11.07;;;9.07;;
13704;SDS011;6924;52.122;9.952;2023-11-21T09:56:18;16.47;;;11.53;;
13704;SDS011;6924;52.122;9.952;2023-11-21T09:58:52;20.10;;;9.47;;
13704;SDS011;6924;52.122;9.952;2023-11-21T10:01:22;10.00;;;8.43;;
13704;SDS011;6924;52.122;9.952;2023-11-21T10:03:56;11.10;;;7.67;;
13704;SDS011;6924;52.122;9.952;2023-11-21T10:06:32;8.77;;;7.87;;
13704;SDS011;6924;52.122;9.952;2023-11-21T10:09:04;9.53;;;6.97;;
13704;SDS011;6924;52.122;9.952;2023-11-21T10:11:41;7.77;;;6.57;;
13704;SDS011;6924;52.122;9.952;2023-11-21T10:14:09;8.63;;;7.17;;
13704;SDS011;6924;52.122;9.952;2023-11-21T10:16:41;8.00;;;6.80;;
13704;SDS011;6924;52.122;9.952;2023-11-21T10:19:13;7.87;;;6.90;;
13704;SDS011;6924;52.122;9.952;2023-11-21T10:21:53;7.97;;;7.03;;
13704;SDS011;6924;52.122;9.952;2023-11-21T10:24:22;8.67;;;7.77;;
13704;SDS011;6924;52.122;9.952;2023-11-21T10:26:49;8.93;;;7.90;;
13704;SDS011;6924;52.122;9.952;2023-11-21T10:29:17;6.80;;;6.10;;
13704;SDS011;6924;52.122;9.952;2023-11-21T10:31:44;7.10;;;6.23;;
13704;SDS011;6924;52.122;9.952;2023-11-21T10:34:14;5.23;;;4.73;;
13704;SDS011;6924;52.122;9.952;2023-11-21T10:37:07;6.33;;;4.67;;
13704;SDS011;6924;52.122;9.952;2023-11-21T10:39:40;4.93;;;4.50;;
13704;SDS011;6924;52.122;9.952;2023-11-21T10:45:07;4.70;;;3.57;;
13704;SDS011;6924;52.122;9.952;2023-11-21T10:47:38;4.10;;;3.70;;
13704;SDS011;6924;52.122;9.952;2023-11-21T10:50:13;4.77;;;4.27;;
13704;SDS011;6924;52.122;9.952;2023-11-21T10:55:38;4.83;;;3.93;;
13704;SDS011;6924;52.122;9.952;2023-11-21T10:58:07;4.00;;;3.60;;
13704;SDS011;6924;52.122;9.952;2023-11-21T11:00:37;4.23;;;3.83;;
13704;SDS011;6924;52.122;9.952;2023-11-21T11:03:08;3.63;;;3.27;;
13704;SDS011;6924;52.122;9.952;2023-11-21T11:05:46;5.10;;;4.40;;
13704;SDS011;6924;52.122;9.952;2023-11-21T11:08:26;6.43;;;3.93;;
13704;SDS011;6924;52.122;9.952;2023-11-21T11:10:56;5.20;;;4.20;;
13704;SDS011;6924;52.122;9.952;2023-11-21T11:13:31;5.33;;;4.67;;
13704;SDS011;6924;52.122;9.952;2023-11-21T11:16:03;5.70;;;5.13;;
13704;SDS011;6924;52.122;9.952;2023-11-21T11:18:43;4.77;;;4.20;;
13704;SDS011;6924;52.122;9.952;2023-11-21T11:21:21;8.27;;;5.23;;
13704;SDS011;6924;52.122;9.952;2023-11-21T11:27:14;11.60;;;10.50;;
13704;SDS011;6924;52.122;9.952;2023-11-21T11:30:00;6.73;;;5.83;;
13704;SDS011;6924;52.122;9.952;2023-11-21T11:33:04;5.17;;;4.53;;
13704;SDS011;6924;52.122;9.952;2023-11-21T11:35:39;6.23;;;5.63;;
13704;SDS011;6924;52.122;9.952;2023-11-21T11:38:26;6.00;;;5.40;;
13704;SDS011;6924;52.122;9.952;2023-11-21T11:41:34;4.07;;;3.50;;
13704;SDS011;6924;52.122;9.952;2023-11-21T11:47:25;4.30;;;3.57;;
13704;SDS011;6924;52.122;9.952;2023-11-21T11:50:07;4.27;;;3.83;;
13704;SDS011;6924;52.122;9.952;2023-11-21T11:52:42;4.73;;;4.33;;
13704;SDS011;6924;52.122;9.952;2023-11-21T11:55:14;4.20;;;3.80;;
13704;SDS011;6924;52.122;9.952;2023-11-21T12:00:42;5.40;;;4.13;;
13704;SDS011;6924;52.122;9.952;2023-11-21T12:03:14;6.50;;;3.80;;
13704;SDS011;6924;52.122;9.952;2023-11-21T12:05:52;4.63;;;3.30;;
13704;SDS011;6924;52.122;9.952;2023-11-21T12:08:23;4.67;;;4.00;;
13704;SDS011;6924;52.122;9.952;2023-11-21T12:10:56;4.80;;;3.67;;
13704;SDS011;6924;52.122;9.952;2023-11-21T12:13:27;4.63;;;3.87;;
13704;SDS011;6924;52.122;9.952;2023-11-21T12:15:58;5.10;;;4.60;;
13704;SDS011;6924;52.122;9.952;2023-11-21T12:18:38;5.07;;;4.20;;
13704;SDS011;6924;52.122;9.952;2023-11-21T12:21:08;4.67;;;4.27;;
13704;SDS011;6924;52.122;9.952;2023-11-21T12:26:42;3.90;;;3.60;;
13704;SDS011;6924;52.122;9.952;2023-11-21T12:32:03;4.13;;;3.33;;
13704;SDS011;6924;52.122;9.952;2023-11-21T12:34:46;4.17;;;3.87;;
13704;SDS011;6924;52.122;9.952;2023-11-21T12:37:35;6.03;;;3.40;;
13704;SDS011;6924;52.122;9.952;2023-11-21T12:40:07;4.03;;;3.63;;
13704;SDS011;6924;52.122;9.952;2023-11-21T12:42:47;3.57;;;3.27;;
13704;SDS011;6924;52.122;9.952;2023-11-21T12:48:20;3.60;;;3.30;;
13704;SDS011;6924;52.122;9.952;2023-11-21T12:50:49;4.47;;;3.90;;
13704;SDS011;6924;52.122;9.952;2023-11-21T12:53:23;4.10;;;3.70;;
13704;SDS011;6924;52.122;9.952;2023-11-21T12:56:12;5.13;;;4.30;;
13704;SDS011;6924;52.122;9.952;2023-11-21T12:59:15;4.17;;;3.53;;
13704;SDS011;6924;52.122;9.952;2023-11-21T13:01:36;4.30;;;3.90;;
13704;SDS011;6924;52.122;9.952;2023-11-21T13:04:14;5.17;;;4.10;;
13704;SDS011;6924;52.122;9.952;2023-11-21T13:06:52;3.73;;;3.43;;
13704;SDS011;6924;52.122;9.952;2023-11-21T13:09:25;3.80;;;3.43;;
13704;SDS011;6924;52.122;9.952;2023-11-21T13:12:04;4.67;;;3.13;;
13704;SDS011;6924;52.122;9.952;2023-11-21T13:14:47;4.80;;;3.90;;
13704;SDS011;6924;52.122;9.952;2023-11-21T13:17:26;4.40;;;4.00;;
13704;SDS011;6924;52.122;9.952;2023-11-21T13:19:53;3.93;;;3.53;;
13704;SDS011;6924;52.122;9.952;2023-11-21T13:22:37;4.07;;;3.63;;
13704;SDS011;6924;52.122;9.952;2023-11-21T13:25:06;3.87;;;3.57;;
13704;SDS011;6924;52.122;9.952;2023-11-21T13:27:53;4.33;;;3.93;;
13704;SDS011;6924;52.122;9.952;2023-11-21T13:30:36;4.93;;;4.40;;
13704;SDS011;6924;52.122;9.952;2023-11-21T13:33:06;4.40;;;4.00;;
13704;SDS011;6924;52.122;9.952;2023-11-21T13:35:35;4.03;;;3.47;;
13704;SDS011;6924;52.122;9.952;2023-11-21T13:38:08;5.37;;;4.67;;
13704;SDS011;6924;52.122;9.952;2023-11-21T13:40:36;4.43;;;4.03;;
13704;SDS011;6924;52.122;9.952;2023-11-21T13:43:08;3.17;;;2.97;;
13704;SDS011;6924;52.122;9.952;2023-11-21T13:45:41;3.17;;;2.90;;
13704;SDS011;6924;52.122;9.952;2023-11-21T13:48:10;4.73;;;2.90;;
13704;SDS011;6924;52.122;9.952;2023-11-21T13:50:39;3.50;;;3.03;;
13704;SDS011;6924;52.122;9.952;2023-11-21T13:53:13;3.50;;;2.90;;
13704;SDS011;6924;52.122;9.952;2023-11-21T13:55:52;4.87;;;3.57;;
13704;SDS011;6924;52.122;9.952;2023-11-21T13:58:27;3.73;;;3.43;;
13704;SDS011;6924;52.122;9.952;2023-11-21T14:01:12;3.03;;;2.40;;
13704;SDS011;6924;52.122;9.952;2023-11-21T14:04:11;3.07;;;2.70;;
13704;SDS011;6924;52.122;9.952;2023-11-21T14:06:56;14.70;;;3.20;;
13704;SDS011;6924;52.122;9.952;2023-11-21T14:09:37;3.40;;;3.10;;
13704;SDS011;6924;52.122;9.952;2023-11-21T14:12:08;4.50;;;3.43;;
13704;SDS011;6924;52.122;9.952;2023-11-21T14:14:43;3.43;;;3.17;;
13704;SDS011;6924;52.122;9.952;2023-11-21T14:17:19;3.03;;;2.70;;
13704;SDS011;6924;52.122;9.952;2023-11-21T14:19:48;5.13;;;3.03;;
13704;SDS011;6924;52.122;9.952;2023-11-21T14:22:20;3.47;;;3.17;;
13704;SDS011;6924;52.122;9.952;2023-11-21T14:24:53;3.13;;;2.83;;
13704;SDS011;6924;52.122;9.952;2023-11-21T14:27:23;3.50;;;3.03;;
13704;SDS011;6924;52.122;9.952;2023-11-21T14:29:53;4.00;;;3.27;;
13704;SDS011;6924;52.122;9.952;2023-11-21T14:32:29;3.70;;;2.87;;
13704;SDS011;6924;52.122;9.952;2023-11-21T14:35:11;2.77;;;2.43;;
13704;SDS011;6924;52.122;9.952;2023-11-21T14:37:40;3.80;;;3.00;;
13704;SDS011;6924;52.122;9.952;2023-11-21T14:40:08;5.70;;;3.73;;
13704;SDS011;6924;52.122;9.952;2023-11-21T14:42:46;6.77;;;3.10;;
13704;SDS011;6924;52.122;9.952;2023-11-21T14:45:13;3.40;;;2.90;;
13704;SDS011;6924;52.122;9.952;2023-11-21T14:47:45;9.23;;;3.13;;
13704;SDS011;6924;52.122;9.952;2023-11-21T14:50:32;2.87;;;2.67;;
13704;SDS011;6924;52.122;9.952;2023-11-21T14:53:56;8.27;;;3.30;;
13704;SDS011;6924;52.122;9.952;2023-11-21T14:56:37;2.50;;;2.30;;
13704;SDS011;6924;52.122;9.952;2023-11-21T14:59:03;2.70;;;2.50;;
13704;SDS011;6924;52.122;9.952;2023-11-21T15:01:37;3.07;;;2.77;;
13704;SDS011;6924;52.122;9.952;2023-11-21T15:04:11;3.70;;;2.70;;
13704;SDS011;6924;52.122;9.952;2023-11-21T15:06:47;4.10;;;3.20;;
13704;SDS011;6924;52.122;9.952;2023-11-21T15:09:14;2.13;;;2.03;;
13704;SDS011;6924;52.122;9.952;2023-11-21T15:12:00;3.83;;;2.80;;
13704;SDS011;6924;52.122;9.952;2023-11-21T15:14:37;2.83;;;2.53;;
13704;SDS011;6924;52.122;9.952;2023-11-21T15:17:04;3.40;;;2.63;;
13704;SDS011;6924;52.122;9.952;2023-11-21T15:19:31;3.03;;;2.67;;
13704;SDS011;6924;52.122;9.952;2023-11-21T15:21:59;2.70;;;2.50;;
13704;SDS011;6924;52.122;9.952;2023-11-21T15:24:26;2.50;;;2.30;;
13704;SDS011;6924;52.122;9.952;2023-11-21T15:26:52;2.77;;;2.40;;
13704;SDS011;6924;52.122;9.952;2023-11-21T15:29:19;4.17;;;2.83;;
13704;SDS011;6924;52.122;9.952;2023-11-21T15:31:46;2.37;;;2.17;;
13704;SDS011;6924;52.122;9.952;2023-11-21T15:34:14;3.00;;;2.70;;
13704;SDS011;6924;52.122;9.952;2023-11-21T15:36:40;3.23;;;2.93;;
13704;SDS011;6924;52.122;9.952;2023-11-21T15:39:08;3.03;;;2.73;;
13704;SDS011;6924;52.122;9.952;2023-11-21T15:41:35;5.83;;;5.23;;
13704;SDS011;6924;52.122;9.952;2023-11-21T15:44:03;22.93;;;15.47;;
13704;SDS011;6924;52.122;9.952;2023-11-21T15:46:32;5.00;;;4.00;;
13704;SDS011;6924;52.122;9.952;2023-11-21T15:48:59;3.17;;;2.87;;
13704;SDS011;6924;52.122;9.952;2023-11-21T15:51:27;2.40;;;2.20;;
13704;SDS011;6924;52.122;9.952;2023-11-21T15:53:53;3.10;;;2.80;;
13704;SDS011;6924;52.122;9.952;2023-11-21T15:56:21;3.50;;;2.57;;